sensor_id;sensor_type;location;lat;lon;timestamp;temperature;humidity
31747;DHT22;18319;48.974;8.462;2022-09-14T00:02:03;18.40;99.90
31747;DHT22;18319;48.974;8.462;2022-09-14T00:04:29;18.40;99.90
31747;DHT22;18319;48.974;8.462;2022-09-14T00:06:56;18.30;99.90
31747;DHT22;18319;48.974;8.462;2022-09-14T00:09:24;18.30;99.90
31747;DHT22;18319;48.974;8.462;2022-09-14T00:11:51;18.30;99.90
31747;DHT22;18319;48.974;8.462;2022-09-14T00:14:18;18.30;99.90
31747;DHT22;18319;48.974;8.462;2022-09-14T00:16:46;18.30;99.90
31747;DHT22;18319;48.974;8.462;2022-09-14T00:19:17;18.20;99.90
31747;DHT22;18319;48.974;8.462;2022-09-14T00:21:44;18.30;99.90
31747;DHT22;18319;48.974;8.462;2022-09-14T00:24:11;18.30;99.90
31747;DHT22;18319;48.974;8.462;2022-09-14T00:26:37;18.30;99.90
31747;DHT22;18319;48.974;8.462;2022-09-14T00:29:05;18.30;99.90
31747;DHT22;18319;48.974;8.462;2022-09-14T00:31:32;18.30;99.90
31747;DHT22;18319;48.974;8.462;2022-09-14T00:33:59;18.30;99.90
31747;DHT22;18319;48.974;8.462;2022-09-14T00:36:29;18.30;99.90
31747;DHT22;18319;48.974;8.462;2022-09-14T00:38:56;18.30;99.90
31747;DHT22;18319;48.974;8.462;2022-09-14T00:41:27;18.30;99.90
31747;DHT22;18319;48.974;8.462;2022-09-14T00:43:56;18.30;99.90
31747;DHT22;18319;48.974;8.462;2022-09-14T00:46:24;18.30;99.90
31747;DHT22;18319;48.974;8.462;2022-09-14T00:48:52;18.40;99.90
31747;DHT22;18319;48.974;8.462;2022-09-14T00:51:20;18.40;99.90
31747;DHT22;18319;48.974;8.462;2022-09-14T00:53:49;18.40;99.90
31747;DHT22;18319;48.974;8.462;2022-09-14T00:56:16;18.40;99.90
31747;DHT22;18319;48.974;8.462;2022-09-14T00:58:44;18.50;99.90
31747;DHT22;18319;48.974;8.462;2022-09-14T01:01:11;18.50;99.90
31747;DHT22;18319;48.974;8.462;2022-09-14T01:03:38;18.50;99.90
31747;DHT22;18319;48.974;8.462;2022-09-14T01:06:12;18.50;99.90
31747;DHT22;18319;48.974;8.462;2022-09-14T01:09:02;18.50;99.90
31747;DHT22;18319;48.974;8.462;2022-09-14T01:11:45;18.40;99.90
31747;DHT22;18319;48.974;8.462;2022-09-14T01:14:20;18.40;99.90
31747;DHT22;18319;48.974;8.462;2022-09-14T01:16:55;18.40;99.90
31747;DHT22;18319;48.974;8.462;2022-09-14T01:19:30;18.40;99.90
31747;DHT22;18319;48.974;8.462;2022-09-14T01:22:05;18.40;99.90
31747;DHT22;18319;48.974;8.462;2022-09-14T01:24:41;18.30;99.90
31747;DHT22;18319;48.974;8.462;2022-09-14T01:27:31;18.30;99.90
31747;DHT22;18319;48.974;8.462;2022-09-14T01:30:06;18.20;99.90
31747;DHT22;18319;48.974;8.462;2022-09-14T01:32:38;18.00;99.90
31747;DHT22;18319;48.974;8.462;2022-09-14T01:35:14;17.90;99.90
31747;DHT22;18319;48.974;8.462;2022-09-14T01:37:44;17.80;99.90
31747;DHT22;18319;48.974;8.462;2022-09-14T01:40:16;17.80;99.90
31747;DHT22;18319;48.974;8.462;2022-09-14T01:42:48;17.60;99.90
31747;DHT22;18319;48.974;8.462;2022-09-14T01:45:17;17.60;99.90
31747;DHT22;18319;48.974;8.462;2022-09-14T01:47:47;17.50;99.90
31747;DHT22;18319;48.974;8.462;2022-09-14T01:50:19;17.50;99.90
31747;DHT22;18319;48.974;8.462;2022-09-14T01:52:50;17.50;99.90
31747;DHT22;18319;48.974;8.462;2022-09-14T01:55:23;17.50;99.90
31747;DHT22;18319;48.974;8.462;2022-09-14T01:57:56;17.40;99.90
31747;DHT22;18319;48.974;8.462;2022-09-14T02:00:25;17.50;99.90
31747;DHT22;18319;48.974;8.462;2022-09-14T02:02:55;17.50;99.90
31747;DHT22;18319;48.974;8.462;2022-09-14T02:05:28;17.40;99.90
31747;DHT22;18319;48.974;8.462;2022-09-14T02:07:56;17.40;99.90
31747;DHT22;18319;48.974;8.462;2022-09-14T02:10:23;17.40;99.90
31747;DHT22;18319;48.974;8.462;2022-09-14T02:12:52;17.40;99.90
31747;DHT22;18319;48.974;8.462;2022-09-14T02:15:20;17.40;99.90
31747;DHT22;18319;48.974;8.462;2022-09-14T02:17:47;17.50;99.90
31747;DHT22;18319;48.974;8.462;2022-09-14T02:20:19;17.40;99.90
31747;DHT22;18319;48.974;8.462;2022-09-14T02:22:48;17.40;99.90
31747;DHT22;18319;48.974;8.462;2022-09-14T02:25:16;17.50;99.90
31747;DHT22;18319;48.974;8.462;2022-09-14T02:27:42;17.50;99.90
31747;DHT22;18319;48.974;8.462;2022-09-14T02:30:11;17.50;99.90
31747;DHT22;18319;48.974;8.462;2022-09-14T02:32:44;17.40;99.90
31747;DHT22;18319;48.974;8.462;2022-09-14T02:35:17;17.40;99.90
31747;DHT22;18319;48.974;8.462;2022-09-14T02:37:52;17.40;99.90
31747;DHT22;18319;48.974;8.462;2022-09-14T02:40:27;17.40;99.90
31747;DHT22;18319;48.974;8.462;2022-09-14T02:43:05;17.40;99.90
31747;DHT22;18319;48.974;8.462;2022-09-14T02:45:42;17.40;99.90
31747;DHT22;18319;48.974;8.462;2022-09-14T02:48:15;17.30;99.90
31747;DHT22;18319;48.974;8.462;2022-09-14T02:50:50;17.30;99.90
31747;DHT22;18319;48.974;8.462;2022-09-14T02:53:23;17.30;99.90
31747;DHT22;18319;48.974;8.462;2022-09-14T02:55:55;17.30;99.90
31747;DHT22;18319;48.974;8.462;2022-09-14T02:58:22;17.30;99.90
31747;DHT22;18319;48.974;8.462;2022-09-14T03:00:51;17.30;99.90
31747;DHT22;18319;48.974;8.462;2022-09-14T03:03:19;17.20;99.90
31747;DHT22;18319;48.974;8.462;2022-09-14T03:05:46;17.20;99.90
31747;DHT22;18319;48.974;8.462;2022-09-14T03:08:13;17.20;99.90
31747;DHT22;18319;48.974;8.462;2022-09-14T03:10:41;17.20;99.90
31747;DHT22;18319;48.974;8.462;2022-09-14T03:13:08;17.30;99.90
31747;DHT22;18319;48.974;8.462;2022-09-14T03:15:35;17.30;99.90
31747;DHT22;18319;48.974;8.462;2022-09-14T03:18:04;17.30;99.90
31747;DHT22;18319;48.974;8.462;2022-09-14T03:20:32;17.40;99.90
31747;DHT22;18319;48.974;8.462;2022-09-14T03:22:59;17.30;99.90
31747;DHT22;18319;48.974;8.462;2022-09-14T03:25:26;17.30;99.90
31747;DHT22;18319;48.974;8.462;2022-09-14T03:27:56;17.40;99.90
31747;DHT22;18319;48.974;8.462;2022-09-14T03:30:23;17.40;99.90
31747;DHT22;18319;48.974;8.462;2022-09-14T03:32:50;17.40;99.90
31747;DHT22;18319;48.974;8.462;2022-09-14T03:35:18;17.40;99.90
31747;DHT22;18319;48.974;8.462;2022-09-14T03:37:45;17.40;99.90
31747;DHT22;18319;48.974;8.462;2022-09-14T03:40:14;17.40;99.90
31747;DHT22;18319;48.974;8.462;2022-09-14T03:42:41;17.40;99.90
31747;DHT22;18319;48.974;8.462;2022-09-14T03:45:09;17.40;99.90
31747;DHT22;18319;48.974;8.462;2022-09-14T03:47:36;17.40;99.90
31747;DHT22;18319;48.974;8.462;2022-09-14T03:50:03;17.40;99.90
31747;DHT22;18319;48.974;8.462;2022-09-14T03:52:32;17.50;99.90
31747;DHT22;18319;48.974;8.462;2022-09-14T03:54:59;17.50;99.90
31747;DHT22;18319;48.974;8.462;2022-09-14T03:57:26;17.50;99.90
31747;DHT22;18319;48.974;8.462;2022-09-14T03:59:53;17.50;99.90
31747;DHT22;18319;48.974;8.462;2022-09-14T04:02:19;17.60;99.90
31747;DHT22;18319;48.974;8.462;2022-09-14T04:04:46;17.60;99.90
31747;DHT22;18319;48.974;8.462;2022-09-14T04:07:13;17.60;99.90
31747;DHT22;18319;48.974;8.462;2022-09-14T04:09:42;17.50;99.90
31747;DHT22;18319;48.974;8.462;2022-09-14T04:12:08;17.50;99.90
31747;DHT22;18319;48.974;8.462;2022-09-14T04:14:35;17.50;99.90
31747;DHT22;18319;48.974;8.462;2022-09-14T04:17:03;17.50;99.90
31747;DHT22;18319;48.974;8.462;2022-09-14T04:19:29;17.50;99.90
31747;DHT22;18319;48.974;8.462;2022-09-14T04:21:57;17.50;99.90
31747;DHT22;18319;48.974;8.462;2022-09-14T04:24:24;17.50;99.90
31747;DHT22;18319;48.974;8.462;2022-09-14T04:26:52;17.50;99.90
31747;DHT22;18319;48.974;8.462;2022-09-14T04:29:19;17.50;99.90
31747;DHT22;18319;48.974;8.462;2022-09-14T04:31:46;17.50;99.90
31747;DHT22;18319;48.974;8.462;2022-09-14T04:34:13;17.50;99.90
31747;DHT22;18319;48.974;8.462;2022-09-14T04:36:39;17.60;99.90
31747;DHT22;18319;48.974;8.462;2022-09-14T04:39:08;17.50;99.90
31747;DHT22;18319;48.974;8.462;2022-09-14T04:41:35;17.50;99.90
31747;DHT22;18319;48.974;8.462;2022-09-14T04:44:04;17.50;99.90
31747;DHT22;18319;48.974;8.462;2022-09-14T04:46:32;17.60;99.90
31747;DHT22;18319;48.974;8.462;2022-09-14T04:49:00;17.60;99.90
31747;DHT22;18319;48.974;8.462;2022-09-14T04:51:28;17.60;99.90
31747;DHT22;18319;48.974;8.462;2022-09-14T04:53:56;17.60;99.90
31747;DHT22;18319;48.974;8.462;2022-09-14T04:56:24;17.60;99.90
31747;DHT22;18319;48.974;8.462;2022-09-14T04:58:57;17.60;99.90
31747;DHT22;18319;48.974;8.462;2022-09-14T05:01:27;17.60;99.90
31747;DHT22;18319;48.974;8.462;2022-09-14T05:03:54;17.60;99.90
31747;DHT22;18319;48.974;8.462;2022-09-14T05:06:23;17.60;99.90
31747;DHT22;18319;48.974;8.462;2022-09-14T05:08:50;17.60;99.90
31747;DHT22;18319;48.974;8.462;2022-09-14T05:11:20;17.70;99.90
31747;DHT22;18319;48.974;8.462;2022-09-14T05:13:47;17.70;99.90
31747;DHT22;18319;48.974;8.462;2022-09-14T05:16:15;17.70;99.90
31747;DHT22;18319;48.974;8.462;2022-09-14T05:18:44;17.70;99.90
31747;DHT22;18319;48.974;8.462;2022-09-14T05:21:12;17.70;99.90
31747;DHT22;18319;48.974;8.462;2022-09-14T05:23:39;17.60;99.90
31747;DHT22;18319;48.974;8.462;2022-09-14T05:26:07;17.60;99.90
31747;DHT22;18319;48.974;8.462;2022-09-14T05:28:34;17.60;99.90
31747;DHT22;18319;48.974;8.462;2022-09-14T05:31:03;17.60;99.90
31747;DHT22;18319;48.974;8.462;2022-09-14T05:33:31;17.60;99.90
31747;DHT22;18319;48.974;8.462;2022-09-14T05:36:01;17.60;99.90
31747;DHT22;18319;48.974;8.462;2022-09-14T05:38:29;17.60;99.90
31747;DHT22;18319;48.974;8.462;2022-09-14T05:40:56;17.70;99.90
31747;DHT22;18319;48.974;8.462;2022-09-14T05:43:23;17.70;99.90
31747;DHT22;18319;48.974;8.462;2022-09-14T05:45:51;17.70;99.90
31747;DHT22;18319;48.974;8.462;2022-09-14T05:48:17;17.80;99.90
31747;DHT22;18319;48.974;8.462;2022-09-14T05:50:44;17.70;99.90
31747;DHT22;18319;48.974;8.462;2022-09-14T05:53:12;17.70;99.90
31747;DHT22;18319;48.974;8.462;2022-09-14T05:55:39;17.60;99.90
31747;DHT22;18319;48.974;8.462;2022-09-14T05:58:06;17.70;99.90
31747;DHT22;18319;48.974;8.462;2022-09-14T06:00:32;17.70;99.90
31747;DHT22;18319;48.974;8.462;2022-09-14T06:02:59;17.70;99.90
31747;DHT22;18319;48.974;8.462;2022-09-14T06:05:26;17.70;99.90
31747;DHT22;18319;48.974;8.462;2022-09-14T06:07:53;17.80;99.90
31747;DHT22;18319;48.974;8.462;2022-09-14T06:10:21;17.90;99.90
31747;DHT22;18319;48.974;8.462;2022-09-14T06:12:48;17.90;99.90
31747;DHT22;18319;48.974;8.462;2022-09-14T06:15:15;17.90;99.90
31747;DHT22;18319;48.974;8.462;2022-09-14T06:17:42;17.90;99.90
31747;DHT22;18319;48.974;8.462;2022-09-14T06:20:09;18.00;99.90
31747;DHT22;18319;48.974;8.462;2022-09-14T06:22:36;18.00;99.90
31747;DHT22;18319;48.974;8.462;2022-09-14T06:25:03;18.00;99.90
31747;DHT22;18319;48.974;8.462;2022-09-14T06:27:32;18.00;99.90
31747;DHT22;18319;48.974;8.462;2022-09-14T06:29:58;18.00;99.90
31747;DHT22;18319;48.974;8.462;2022-09-14T06:32:25;18.10;99.90
31747;DHT22;18319;48.974;8.462;2022-09-14T06:34:55;18.00;99.90
31747;DHT22;18319;48.974;8.462;2022-09-14T06:37:22;18.00;99.90
31747;DHT22;18319;48.974;8.462;2022-09-14T06:39:48;18.10;99.90
31747;DHT22;18319;48.974;8.462;2022-09-14T06:42:15;18.10;99.90
31747;DHT22;18319;48.974;8.462;2022-09-14T06:44:43;18.20;99.90
31747;DHT22;18319;48.974;8.462;2022-09-14T06:47:12;18.30;99.90
31747;DHT22;18319;48.974;8.462;2022-09-14T06:49:39;18.30;99.90
31747;DHT22;18319;48.974;8.462;2022-09-14T06:52:05;18.40;99.90
31747;DHT22;18319;48.974;8.462;2022-09-14T06:54:32;18.40;99.90
31747;DHT22;18319;48.974;8.462;2022-09-14T06:56:59;18.50;99.90
31747;DHT22;18319;48.974;8.462;2022-09-14T06:59:26;18.50;99.90
31747;DHT22;18319;48.974;8.462;2022-09-14T07:01:54;18.50;99.90
31747;DHT22;18319;48.974;8.462;2022-09-14T07:04:21;18.50;99.90
31747;DHT22;18319;48.974;8.462;2022-09-14T07:06:49;18.60;99.90
31747;DHT22;18319;48.974;8.462;2022-09-14T07:09:17;18.60;99.90
31747;DHT22;18319;48.974;8.462;2022-09-14T07:11:45;18.60;99.90
31747;DHT22;18319;48.974;8.462;2022-09-14T07:14:12;18.70;99.90
31747;DHT22;18319;48.974;8.462;2022-09-14T07:16:39;18.70;99.90
31747;DHT22;18319;48.974;8.462;2022-09-14T07:19:10;18.80;99.90
31747;DHT22;18319;48.974;8.462;2022-09-14T07:21:37;19.00;99.90
31747;DHT22;18319;48.974;8.462;2022-09-14T07:24:04;19.20;99.90
31747;DHT22;18319;48.974;8.462;2022-09-14T07:26:33;19.40;99.90
31747;DHT22;18319;48.974;8.462;2022-09-14T07:29:05;19.50;99.90
31747;DHT22;18319;48.974;8.462;2022-09-14T07:31:34;19.80;99.90
31747;DHT22;18319;48.974;8.462;2022-09-14T07:34:02;20.10;99.90
31747;DHT22;18319;48.974;8.462;2022-09-14T07:36:33;20.30;99.90
31747;DHT22;18319;48.974;8.462;2022-09-14T07:39:01;20.60;99.90
31747;DHT22;18319;48.974;8.462;2022-09-14T07:41:28;20.80;99.90
31747;DHT22;18319;48.974;8.462;2022-09-14T07:43:57;21.00;99.90
31747;DHT22;18319;48.974;8.462;2022-09-14T07:46:26;21.10;99.90
31747;DHT22;18319;48.974;8.462;2022-09-14T07:48:54;21.00;99.90
31747;DHT22;18319;48.974;8.462;2022-09-14T07:51:22;21.10;99.90
31747;DHT22;18319;48.974;8.462;2022-09-14T07:53:50;20.90;99.90
31747;DHT22;18319;48.974;8.462;2022-09-14T07:56:17;20.80;99.90
31747;DHT22;18319;48.974;8.462;2022-09-14T07:58:44;20.80;99.90
31747;DHT22;18319;48.974;8.462;2022-09-14T08:01:14;20.80;99.90
31747;DHT22;18319;48.974;8.462;2022-09-14T08:03:44;20.70;99.90
31747;DHT22;18319;48.974;8.462;2022-09-14T08:06:13;20.70;99.90
31747;DHT22;18319;48.974;8.462;2022-09-14T08:08:41;20.90;99.90
31747;DHT22;18319;48.974;8.462;2022-09-14T08:11:11;21.20;99.90
31747;DHT22;18319;48.974;8.462;2022-09-14T08:13:41;21.30;99.90
31747;DHT22;18319;48.974;8.462;2022-09-14T08:16:08;21.60;99.90
31747;DHT22;18319;48.974;8.462;2022-09-14T08:18:37;22.00;99.90
31747;DHT22;18319;48.974;8.462;2022-09-14T08:21:05;22.30;99.90
31747;DHT22;18319;48.974;8.462;2022-09-14T08:23:33;22.50;99.90
31747;DHT22;18319;48.974;8.462;2022-09-14T08:26:03;22.60;99.90
31747;DHT22;18319;48.974;8.462;2022-09-14T08:28:32;22.70;99.90
31747;DHT22;18319;48.974;8.462;2022-09-14T08:31:04;22.90;99.90
31747;DHT22;18319;48.974;8.462;2022-09-14T08:33:32;23.20;99.90
31747;DHT22;18319;48.974;8.462;2022-09-14T08:35:59;23.40;99.90
31747;DHT22;18319;48.974;8.462;2022-09-14T08:38:27;23.40;99.90
31747;DHT22;18319;48.974;8.462;2022-09-14T08:40:55;23.30;99.90
31747;DHT22;18319;48.974;8.462;2022-09-14T08:43:24;23.10;99.90
31747;DHT22;18319;48.974;8.462;2022-09-14T08:46:02;23.00;99.90
31747;DHT22;18319;48.974;8.462;2022-09-14T08:48:35;22.90;99.90
31747;DHT22;18319;48.974;8.462;2022-09-14T08:51:03;22.90;99.90
31747;DHT22;18319;48.974;8.462;2022-09-14T08:53:33;22.90;99.90
31747;DHT22;18319;48.974;8.462;2022-09-14T08:56:05;23.00;99.90
31747;DHT22;18319;48.974;8.462;2022-09-14T08:58:47;22.90;99.90
31747;DHT22;18319;48.974;8.462;2022-09-14T09:01:21;22.90;99.90
31747;DHT22;18319;48.974;8.462;2022-09-14T09:04:02;22.90;99.90
31747;DHT22;18319;48.974;8.462;2022-09-14T09:06:38;22.90;99.90
31747;DHT22;18319;48.974;8.462;2022-09-14T09:09:16;22.80;99.90
31747;DHT22;18319;48.974;8.462;2022-09-14T09:11:48;22.70;99.90
31747;DHT22;18319;48.974;8.462;2022-09-14T09:14:19;22.50;99.90
31747;DHT22;18319;48.974;8.462;2022-09-14T09:16:51;22.50;99.90
31747;DHT22;18319;48.974;8.462;2022-09-14T09:19:22;22.40;99.90
31747;DHT22;18319;48.974;8.462;2022-09-14T09:21:50;22.50;99.90
31747;DHT22;18319;48.974;8.462;2022-09-14T09:24:27;22.60;99.90
31747;DHT22;18319;48.974;8.462;2022-09-14T09:26:55;22.80;99.90
31747;DHT22;18319;48.974;8.462;2022-09-14T09:29:22;23.00;99.90
31747;DHT22;18319;48.974;8.462;2022-09-14T09:31:52;23.20;99.90
31747;DHT22;18319;48.974;8.462;2022-09-14T09:34:25;23.30;99.90
31747;DHT22;18319;48.974;8.462;2022-09-14T09:36:52;23.40;99.90
31747;DHT22;18319;48.974;8.462;2022-09-14T09:39:22;23.50;99.90
31747;DHT22;18319;48.974;8.462;2022-09-14T09:41:55;23.70;99.90
31747;DHT22;18319;48.974;8.462;2022-09-14T09:44:23;23.70;99.90
31747;DHT22;18319;48.974;8.462;2022-09-14T09:46:54;23.80;99.90
31747;DHT22;18319;48.974;8.462;2022-09-14T09:49:24;23.90;99.90
31747;DHT22;18319;48.974;8.462;2022-09-14T09:51:51;24.00;99.90
31747;DHT22;18319;48.974;8.462;2022-09-14T09:54:23;24.00;99.90
31747;DHT22;18319;48.974;8.462;2022-09-14T09:56:53;24.00;99.90
31747;DHT22;18319;48.974;8.462;2022-09-14T09:59:26;24.00;99.90
31747;DHT22;18319;48.974;8.462;2022-09-14T10:01:55;23.90;99.90
31747;DHT22;18319;48.974;8.462;2022-09-14T10:04:25;23.70;99.90
31747;DHT22;18319;48.974;8.462;2022-09-14T10:06:54;23.60;99.90
31747;DHT22;18319;48.974;8.462;2022-09-14T10:09:23;23.60;99.90
31747;DHT22;18319;48.974;8.462;2022-09-14T10:11:57;23.60;99.90
31747;DHT22;18319;48.974;8.462;2022-09-14T10:14:28;23.70;99.90
31747;DHT22;18319;48.974;8.462;2022-09-14T10:17:06;23.70;99.90
31747;DHT22;18319;48.974;8.462;2022-09-14T10:19:33;23.60;99.90
31747;DHT22;18319;48.974;8.462;2022-09-14T10:22:14;23.60;99.90
31747;DHT22;18319;48.974;8.462;2022-09-14T10:24:51;23.60;99.90
31747;DHT22;18319;48.974;8.462;2022-09-14T10:27:36;23.70;99.90
31747;DHT22;18319;48.974;8.462;2022-09-14T10:30:08;23.70;99.90
31747;DHT22;18319;48.974;8.462;2022-09-14T10:32:38;23.80;99.90
31747;DHT22;18319;48.974;8.462;2022-09-14T10:35:11;23.90;99.90
31747;DHT22;18319;48.974;8.462;2022-09-14T10:37:56;23.90;99.90
31747;DHT22;18319;48.974;8.462;2022-09-14T10:40:34;23.90;99.90
31747;DHT22;18319;48.974;8.462;2022-09-14T10:43:12;23.90;99.90
31747;DHT22;18319;48.974;8.462;2022-09-14T10:45:42;24.10;99.90
31747;DHT22;18319;48.974;8.462;2022-09-14T10:48:49;24.20;99.90
31747;DHT22;18319;48.974;8.462;2022-09-14T10:51:29;24.30;99.90
31747;DHT22;18319;48.974;8.462;2022-09-14T10:54:09;24.40;99.90
31747;DHT22;18319;48.974;8.462;2022-09-14T10:56:49;24.40;99.90
31747;DHT22;18319;48.974;8.462;2022-09-14T10:59:25;24.60;99.90
31747;DHT22;18319;48.974;8.462;2022-09-14T11:05:14;24.90;99.90
31747;DHT22;18319;48.974;8.462;2022-09-14T11:07:53;24.90;99.90
31747;DHT22;18319;48.974;8.462;2022-09-14T11:10:26;24.70;99.90
31747;DHT22;18319;48.974;8.462;2022-09-14T11:15:51;24.50;99.90
31747;DHT22;18319;48.974;8.462;2022-09-14T11:18:28;24.60;99.90
31747;DHT22;18319;48.974;8.462;2022-09-14T11:21:04;24.80;99.90
31747;DHT22;18319;48.974;8.462;2022-09-14T11:23:42;25.10;99.90
31747;DHT22;18319;48.974;8.462;2022-09-14T11:26:14;25.40;99.90
31747;DHT22;18319;48.974;8.462;2022-09-14T11:28:43;25.80;99.90
31747;DHT22;18319;48.974;8.462;2022-09-14T11:31:17;26.00;99.90
31747;DHT22;18319;48.974;8.462;2022-09-14T11:33:47;26.30;99.90
31747;DHT22;18319;48.974;8.462;2022-09-14T11:36:22;26.20;99.90
31747;DHT22;18319;48.974;8.462;2022-09-14T11:38:53;26.00;99.90
31747;DHT22;18319;48.974;8.462;2022-09-14T11:41:25;25.80;99.90
31747;DHT22;18319;48.974;8.462;2022-09-14T11:43:57;25.60;99.90
31747;DHT22;18319;48.974;8.462;2022-09-14T11:46:30;25.40;99.90
31747;DHT22;18319;48.974;8.462;2022-09-14T11:49:05;25.30;99.90
31747;DHT22;18319;48.974;8.462;2022-09-14T11:51:40;25.30;99.90
31747;DHT22;18319;48.974;8.462;2022-09-14T11:54:12;25.20;99.90
31747;DHT22;18319;48.974;8.462;2022-09-14T11:56:41;25.10;99.90
31747;DHT22;18319;48.974;8.462;2022-09-14T11:59:33;24.90;99.90
31747;DHT22;18319;48.974;8.462;2022-09-14T12:05:30;24.50;99.90
31747;DHT22;18319;48.974;8.462;2022-09-14T12:08:22;24.10;99.90
31747;DHT22;18319;48.974;8.462;2022-09-14T12:11:02;23.90;99.90
31747;DHT22;18319;48.974;8.462;2022-09-14T12:13:29;23.70;99.90
31747;DHT22;18319;48.974;8.462;2022-09-14T12:16:01;23.40;99.90
31747;DHT22;18319;48.974;8.462;2022-09-14T12:18:29;23.20;99.90
31747;DHT22;18319;48.974;8.462;2022-09-14T12:21:01;23.10;99.90
31747;DHT22;18319;48.974;8.462;2022-09-14T12:23:40;22.90;99.90
31747;DHT22;18319;48.974;8.462;2022-09-14T12:26:34;22.80;99.90
31747;DHT22;18319;48.974;8.462;2022-09-14T12:32:00;22.60;99.90
31747;DHT22;18319;48.974;8.462;2022-09-14T12:34:28;22.30;99.90
31747;DHT22;18319;48.974;8.462;2022-09-14T12:42:47;20.10;99.90
31747;DHT22;18319;48.974;8.462;2022-09-14T12:45:49;19.70;99.90
31747;DHT22;18319;48.974;8.462;2022-09-14T12:48:54;19.40;99.90
31747;DHT22;18319;48.974;8.462;2022-09-14T12:51:29;19.10;99.90
31747;DHT22;18319;48.974;8.462;2022-09-14T12:54:03;18.90;99.90
31747;DHT22;18319;48.974;8.462;2022-09-14T12:56:45;18.70;99.90
31747;DHT22;18319;48.974;8.462;2022-09-14T12:59:21;18.70;99.90
31747;DHT22;18319;48.974;8.462;2022-09-14T13:01:53;18.60;99.90
31747;DHT22;18319;48.974;8.462;2022-09-14T13:04:26;18.60;99.90
31747;DHT22;18319;48.974;8.462;2022-09-14T13:06:54;18.50;99.90
31747;DHT22;18319;48.974;8.462;2022-09-14T13:09:23;18.50;99.90
31747;DHT22;18319;48.974;8.462;2022-09-14T13:11:53;18.50;99.90
31747;DHT22;18319;48.974;8.462;2022-09-14T13:14:25;18.40;99.90
31747;DHT22;18319;48.974;8.462;2022-09-14T13:16:53;18.40;99.90
31747;DHT22;18319;48.974;8.462;2022-09-14T13:19:23;18.40;99.90
31747;DHT22;18319;48.974;8.462;2022-09-14T13:21:52;18.40;99.90
31747;DHT22;18319;48.974;8.462;2022-09-14T13:24:26;18.40;99.90
31747;DHT22;18319;48.974;8.462;2022-09-14T13:26:56;18.40;99.90
31747;DHT22;18319;48.974;8.462;2022-09-14T13:29:24;18.40;99.90
31747;DHT22;18319;48.974;8.462;2022-09-14T13:31:55;18.50;99.90
31747;DHT22;18319;48.974;8.462;2022-09-14T13:34:24;18.50;99.90
31747;DHT22;18319;48.974;8.462;2022-09-14T13:36:52;18.60;99.90
31747;DHT22;18319;48.974;8.462;2022-09-14T13:39:25;18.60;99.90
31747;DHT22;18319;48.974;8.462;2022-09-14T13:41:53;18.70;99.90
31747;DHT22;18319;48.974;8.462;2022-09-14T13:44:25;18.70;99.90
31747;DHT22;18319;48.974;8.462;2022-09-14T13:46:54;18.70;99.90
31747;DHT22;18319;48.974;8.462;2022-09-14T13:49:22;18.70;99.90
31747;DHT22;18319;48.974;8.462;2022-09-14T13:51:49;18.70;99.90
31747;DHT22;18319;48.974;8.462;2022-09-14T13:54:27;18.70;99.90
31747;DHT22;18319;48.974;8.462;2022-09-14T13:57:14;18.70;99.90
31747;DHT22;18319;48.974;8.462;2022-09-14T14:00:17;18.70;99.90
31747;DHT22;18319;48.974;8.462;2022-09-14T14:02:48;18.70;99.90
31747;DHT22;18319;48.974;8.462;2022-09-14T14:05:23;18.80;99.90
31747;DHT22;18319;48.974;8.462;2022-09-14T14:07:52;18.80;99.90
31747;DHT22;18319;48.974;8.462;2022-09-14T14:10:25;18.90;99.90
31747;DHT22;18319;48.974;8.462;2022-09-14T14:12:52;18.80;99.90
31747;DHT22;18319;48.974;8.462;2022-09-14T14:15:47;18.80;99.90
31747;DHT22;18319;48.974;8.462;2022-09-14T14:18:39;18.80;99.90
31747;DHT22;18319;48.974;8.462;2022-09-14T14:21:16;18.80;99.90
31747;DHT22;18319;48.974;8.462;2022-09-14T14:23:50;18.80;99.90
31747;DHT22;18319;48.974;8.462;2022-09-14T14:26:21;18.80;99.90
31747;DHT22;18319;48.974;8.462;2022-09-14T14:28:50;18.80;99.90
31747;DHT22;18319;48.974;8.462;2022-09-14T14:31:20;18.70;99.90
31747;DHT22;18319;48.974;8.462;2022-09-14T14:33:49;18.70;99.90
31747;DHT22;18319;48.974;8.462;2022-09-14T14:36:16;18.70;99.90
31747;DHT22;18319;48.974;8.462;2022-09-14T14:38:44;18.70;99.90
31747;DHT22;18319;48.974;8.462;2022-09-14T14:41:13;18.70;99.90
31747;DHT22;18319;48.974;8.462;2022-09-14T14:43:42;18.80;99.90
31747;DHT22;18319;48.974;8.462;2022-09-14T14:46:11;18.80;99.90
31747;DHT22;18319;48.974;8.462;2022-09-14T14:48:40;18.80;99.90
31747;DHT22;18319;48.974;8.462;2022-09-14T14:51:11;18.70;99.90
31747;DHT22;18319;48.974;8.462;2022-09-14T14:53:38;18.70;99.90
31747;DHT22;18319;48.974;8.462;2022-09-14T14:56:05;18.70;99.90
31747;DHT22;18319;48.974;8.462;2022-09-14T14:58:32;18.60;99.90
31747;DHT22;18319;48.974;8.462;2022-09-14T15:00:59;18.60;99.90
31747;DHT22;18319;48.974;8.462;2022-09-14T15:03:26;18.60;99.90
31747;DHT22;18319;48.974;8.462;2022-09-14T15:05:54;18.50;99.90
31747;DHT22;18319;48.974;8.462;2022-09-14T15:08:20;18.50;99.90
31747;DHT22;18319;48.974;8.462;2022-09-14T15:10:47;18.40;99.90
31747;DHT22;18319;48.974;8.462;2022-09-14T15:13:20;18.30;99.90
31747;DHT22;18319;48.974;8.462;2022-09-14T15:15:47;18.30;99.90
31747;DHT22;18319;48.974;8.462;2022-09-14T15:18:14;18.40;99.90
31747;DHT22;18319;48.974;8.462;2022-09-14T15:20:41;18.50;99.90
31747;DHT22;18319;48.974;8.462;2022-09-14T15:23:11;18.60;99.90
31747;DHT22;18319;48.974;8.462;2022-09-14T15:25:38;18.80;99.90
31747;DHT22;18319;48.974;8.462;2022-09-14T15:28:05;18.90;99.90
31747;DHT22;18319;48.974;8.462;2022-09-14T15:30:32;19.00;99.90
31747;DHT22;18319;48.974;8.462;2022-09-14T15:32:58;19.10;99.90
31747;DHT22;18319;48.974;8.462;2022-09-14T15:35:25;19.20;99.90
31747;DHT22;18319;48.974;8.462;2022-09-14T15:37:52;19.40;99.90
31747;DHT22;18319;48.974;8.462;2022-09-14T15:40:20;19.50;99.90
31747;DHT22;18319;48.974;8.462;2022-09-14T15:42:47;19.80;99.90
31747;DHT22;18319;48.974;8.462;2022-09-14T15:45:14;19.90;99.90
31747;DHT22;18319;48.974;8.462;2022-09-14T15:47:41;20.00;99.90
31747;DHT22;18319;48.974;8.462;2022-09-14T15:50:09;20.00;99.90
31747;DHT22;18319;48.974;8.462;2022-09-14T15:52:36;20.00;99.90
31747;DHT22;18319;48.974;8.462;2022-09-14T15:55:05;19.90;99.90
31747;DHT22;18319;48.974;8.462;2022-09-14T15:57:33;19.90;99.90
31747;DHT22;18319;48.974;8.462;2022-09-14T16:00:01;19.90;99.90
31747;DHT22;18319;48.974;8.462;2022-09-14T16:02:29;19.90;99.90
31747;DHT22;18319;48.974;8.462;2022-09-14T16:04:56;20.00;99.90
31747;DHT22;18319;48.974;8.462;2022-09-14T16:07:23;20.00;99.90
31747;DHT22;18319;48.974;8.462;2022-09-14T16:09:49;20.10;99.90